Time,TemperatureF,DewpointF,PressureIn,WindDirection,WindDirectionDegrees,WindSpeedMPH,WindSpeedGustMPH,Humidity,HourlyPrecipIn,Conditions,Clouds,dailyrainin,SoftwareType,DateUTC
2013-06-02 00:02:00,75.0,-99.9,-100.00,WNW,285,1.0,2.0,81,0.00,,,-99.99,,2013-06-02 04:02:00,
2013-06-02 00:13:00,75.0,69.0,-100.00,East,90,1.0,2.0,81,0.00,,,-99.99,,2013-06-02 04:13:00,
2013-06-02 00:23:00,75.0,69.0,-100.00,East,90,1.0,3.0,81,0.00,,,-99.99,,2013-06-02 04:23:00,
2013-06-02 00:33:00,75.0,69.0,-100.00,NE,50,1.0,3.0,81,0.00,,,-99.99,,2013-06-02 04:33:00,
2013-06-02 00:42:00,75.0,69.0,-100.00,North,-999,-999.0,-999.0,82,0.00,,,-99.99,,2013-06-02 04:42:00,
2013-06-02 00:52:00,75.0,69.0,-100.00,ENE,70,1.0,5.0,83,0.00,,,-99.99,,2013-06-02 04:52:00,
2013-06-02 01:02:00,74.0,69.0,-100.00,ENE,65,1.0,2.0,83,0.00,,,-99.99,,2013-06-02 05:02:00,
2013-06-02 01:12:00,74.0,69.0,-100.00,East,80,1.0,2.0,84,0.00,,,-99.99,,2013-06-02 05:12:00,
2013-06-02 01:22:00,75.0,69.0,-100.00,East,90,1.0,2.0,83,0.00,,,-99.99,,2013-06-02 05:22:00,
2013-06-02 01:32:00,74.0,69.0,-100.00,ENE,70,1.0,2.0,83,0.00,,,-99.99,,2013-06-02 05:32:00,
2013-06-02 01:42:00,75.0,69.0,-100.00,East,80,1.0,2.0,82,0.00,,,-99.99,,2013-06-02 05:42:00,
2013-06-02 01:52:00,74.0,69.0,-100.00,North,-999,-999.0,-999.0,84,0.00,,,-99.99,,2013-06-02 05:52:00,
2013-06-02 02:01:00,74.0,69.0,-100.00,ENE,65,1.0,2.0,82,0.00,,,-99.99,,2013-06-02 06:01:00,
2013-06-02 02:12:00,74.0,69.0,-100.00,ENE,70,1.0,2.0,82,0.00,,,-99.99,,2013-06-02 06:12:00,
2013-06-02 02:21:00,74.0,69.0,-100.00,ENE,65,1.0,2.0,82,0.00,,,-99.99,,2013-06-02 06:21:00,
2013-06-02 02:32:00,74.0,69.0,-100.00,East,90,1.0,1.0,83,0.00,,,-99.99,,2013-06-02 06:32:00,
2013-06-02 02:42:00,74.0,69.0,-100.00,ENE,75,1.0,1.0,85,0.00,,,-99.99,,2013-06-02 06:42:00,
2013-06-02 02:52:00,73.0,69.0,-100.00,ENE,70,1.0,2.0,85,0.00,,,-99.99,,2013-06-02 06:52:00,
2013-06-02 03:01:00,73.0,69.0,-100.00,ENE,65,1.0,2.0,86,0.00,,,-99.99,,2013-06-02 07:01:00,
2013-06-02 03:11:00,73.0,69.0,-100.00,ENE,65,1.0,2.0,86,0.00,,,-99.99,,2013-06-02 07:11:00,
2013-06-02 03:21:00,73.0,69.0,-100.00,ENE,70,1.0,2.0,85,0.00,,,-99.99,,2013-06-02 07:21:00,
2013-06-02 03:32:00,73.0,69.0,-100.00,ENE,70,1.0,2.0,86,0.00,,,-99.99,,2013-06-02 07:32:00,
2013-06-02 03:42:00,72.0,69.0,-100.00,ENE,75,1.0,2.0,87,0.00,,,-99.99,,2013-06-02 07:42:00,
2013-06-02 03:52:00,72.0,69.0,-100.00,East,80,1.0,1.0,88,0.00,,,-99.99,,2013-06-02 07:52:00,
2013-06-02 04:02:00,72.0,69.0,-100.00,ENE,65,1.0,1.0,89,0.00,,,-99.99,,2013-06-02 08:02:00,
2013-06-02 04:12:00,72.0,69.0,-100.00,ENE,70,1.0,2.0,89,0.00,,,-99.99,,2013-06-02 08:12:00,
2013-06-02 04:21:00,72.0,69.0,-100.00,ENE,65,1.0,1.0,88,0.00,,,-99.99,,2013-06-02 08:21:00,
2013-06-02 04:32:00,71.0,68.0,-100.00,East,80,1.0,2.0,90,0.00,,,-99.99,,2013-06-02 08:32:00,
2013-06-02 04:42:00,72.0,69.0,-100.00,East,80,1.0,2.0,89,0.00,,,-99.99,,2013-06-02 08:42:00,
2013-06-02 04:52:00,72.0,69.0,-100.00,SSE,155,2.0,4.0,89,0.00,,,-99.99,,2013-06-02 08:52:00,
2013-06-02 05:01:00,71.0,68.0,-100.00,East,95,1.0,3.0,89,0.00,,,-99.99,,2013-06-02 09:01:00,
2013-06-02 05:11:00,72.0,68.0,-100.00,East,95,1.0,2.0,89,0.00,,,-99.99,,2013-06-02 09:11:00,
2013-06-02 05:21:00,72.0,68.0,-100.00,East,100,1.0,2.0,88,0.00,,,-99.99,,2013-06-02 09:21:00,
2013-06-02 05:33:00,71.0,68.0,-100.00,ENE,70,1.0,4.0,89,0.00,,,-99.99,,2013-06-02 09:33:00,
2013-06-02 05:42:00,71.0,68.0,-100.00,SE,135,1.0,2.0,90,0.00,,,-99.99,,2013-06-02 09:42:00,
2013-06-02 05:53:00,71.0,68.0,-100.00,East,95,1.0,1.0,90,0.00,,,-99.99,,2013-06-02 09:53:00,
2013-06-02 06:02:00,71.0,68.0,-100.00,ESE,110,1.0,1.0,91,0.00,,,-99.99,,2013-06-02 10:02:00,
2013-06-02 06:12:00,71.0,68.0,-100.00,ESE,105,1.0,1.0,91,0.00,,,-99.99,,2013-06-02 10:12:00,
2013-06-02 06:22:00,71.0,68.0,-100.00,ENE,70,1.0,1.0,91,0.00,,,-99.99,,2013-06-02 10:22:00,
2013-06-02 06:33:00,71.0,68.0,-100.00,North,-999,-999.0,-999.0,90,0.00,,,-99.99,,2013-06-02 10:33:00,
2013-06-02 06:42:00,71.0,68.0,-100.00,East,80,1.0,2.0,90,0.00,,,-99.99,,2013-06-02 10:42:00,
2013-06-02 06:52:00,72.0,69.0,-100.00,ESE,105,1.0,2.0,88,0.00,,,-99.99,,2013-06-02 10:52:00,
2013-06-02 07:02:00,73.0,68.0,-100.00,East,80,1.0,2.0,86,0.00,,,-99.99,,2013-06-02 11:02:00,
2013-06-02 07:12:00,73.0,68.0,-100.00,East,90,1.0,2.0,84,0.00,,,-99.99,,2013-06-02 11:12:00,
2013-06-02 07:22:00,73.0,68.0,-100.00,East,80,1.0,2.0,84,0.00,,,-99.99,,2013-06-02 11:22:00,
2013-06-02 07:32:00,74.0,69.0,-100.00,East,90,1.0,2.0,83,0.00,,,-99.99,,2013-06-02 11:32:00,
2013-06-02 07:42:00,74.0,69.0,-100.00,East,80,1.0,2.0,83,0.00,,,-99.99,,2013-06-02 11:42:00,
2013-06-02 07:52:00,74.0,69.0,-100.00,ENE,65,1.0,3.0,82,0.00,,,-99.99,,2013-06-02 11:52:00,
2013-06-02 08:01:00,75.0,69.0,-100.00,East,80,1.0,4.0,81,0.00,,,-99.99,,2013-06-02 12:01:00,
2013-06-02 08:11:00,75.0,69.0,-100.00,ESE,120,1.0,6.0,81,0.00,,,-99.99,,2013-06-02 12:11:00,
2013-06-02 08:21:00,75.0,69.0,-100.00,ENE,70,2.0,4.0,81,0.00,,,-99.99,,2013-06-02 12:21:00,
2013-06-02 08:32:00,76.0,69.0,-100.00,East,90,1.0,7.0,80,0.00,,,-99.99,,2013-06-02 12:32:00,
2013-06-02 08:42:00,76.0,69.0,-100.00,ENE,70,1.0,4.0,78,0.00,,,-99.99,,2013-06-02 12:42:00,
2013-06-02 08:52:00,78.0,70.0,-100.00,East,85,1.0,6.0,77,0.00,,,-99.99,,2013-06-02 12:52:00,
2013-06-02 09:01:00,78.0,69.0,-100.00,SSE,155,2.0,6.0,75,0.00,,,-99.99,,2013-06-02 13:01:00,
2013-06-02 09:12:00,78.0,70.0,-100.00,North,-999,-999.0,-999.0,74,0.00,,,-99.99,,2013-06-02 13:12:00,
2013-06-02 09:21:00,79.0,70.0,-100.00,East,80,1.0,6.0,72,0.00,,,-99.99,,2013-06-02 13:21:00,
2013-06-02 09:32:00,80.0,70.0,-100.00,East,85,2.0,9.0,72,0.00,,,-99.99,,2013-06-02 13:32:00,
2013-06-02 09:42:00,80.0,70.0,-100.00,SE,140,3.0,9.0,71,0.00,,,-99.99,,2013-06-02 13:42:00,
2013-06-02 09:52:00,81.0,70.0,-100.00,East,80,2.0,11.0,68,0.00,,,-99.99,,2013-06-02 13:52:00,
2013-06-02 10:02:00,82.0,70.0,-100.00,East,90,2.0,11.0,67,0.00,,,-99.99,,2013-06-02 14:02:00,
2013-06-02 10:11:00,83.0,71.0,-100.00,ESE,115,1.0,9.0,65,0.00,,,-99.99,,2013-06-02 14:11:00,
2013-06-02 10:21:00,83.0,71.0,-100.00,SSE,150,4.0,9.0,65,0.00,,,-99.99,,2013-06-02 14:21:00,
2013-06-02 10:32:00,85.0,71.0,-100.00,East,85,2.0,9.0,62,0.00,,,-99.99,,2013-06-02 14:32:00,
2013-06-02 10:42:00,85.0,71.0,-100.00,ENE,75,3.0,7.0,63,0.00,,,-99.99,,2013-06-02 14:42:00,
2013-06-02 10:52:00,86.0,70.0,-100.00,ENE,65,2.0,9.0,58,0.00,,,-99.99,,2013-06-02 14:52:00,
2013-06-02 11:01:00,86.0,70.0,-100.00,SSE,150,3.0,7.0,57,0.00,,,-99.99,,2013-06-02 15:01:00,
2013-06-02 11:11:00,87.0,67.0,-100.00,SE,140,7.0,13.0,53,0.00,,,-99.99,,2013-06-02 15:11:00,
2013-06-02 11:21:00,87.0,68.0,-100.00,East,100,3.0,13.0,52,0.00,,,-99.99,,2013-06-02 15:21:00,
2013-06-02 11:33:00,88.0,67.0,-100.00,East,90,4.0,11.0,50,0.00,,,-99.99,,2013-06-02 15:33:00,
2013-06-02 11:43:00,88.0,67.0,-100.00,SE,145,4.0,10.0,48,0.00,,,-99.99,,2013-06-02 15:43:00,
2013-06-02 11:53:00,88.0,66.0,-100.00,ENE,60,4.0,12.0,48,0.00,,,-99.99,,2013-06-02 15:53:00,
2013-06-02 12:03:00,89.0,66.0,-100.00,East,80,5.0,15.0,46,0.00,,,-99.99,,2013-06-02 16:03:00,
2013-06-02 12:13:00,89.0,67.0,-100.00,East,90,5.0,12.0,47,0.00,,,-99.99,,2013-06-02 16:13:00,
2013-06-02 12:23:00,89.0,66.0,-100.00,SSE,160,6.0,13.0,47,0.00,,,-99.99,,2013-06-02 16:23:00,
2013-06-02 12:33:00,89.0,66.0,-100.00,SE,130,4.0,14.0,46,0.00,,,-99.99,,2013-06-02 16:33:00,
2013-06-02 12:52:00,90.0,67.0,-100.00,SE,135,3.0,13.0,46,0.00,,,-99.99,,2013-06-02 16:52:00,
2013-06-02 13:02:00,91.0,67.0,-100.00,ESE,115,4.0,12.0,45,0.00,,,-99.99,,2013-06-02 17:02:00,
2013-06-02 13:12:00,90.0,66.0,-100.00,SSE,160,6.0,16.0,46,0.00,,,-99.99,,2013-06-02 17:12:00,
2013-06-02 13:23:00,90.0,66.0,-100.00,SSE,155,6.0,14.0,45,0.00,,,-99.99,,2013-06-02 17:23:00,
2013-06-02 13:32:00,91.0,67.0,-100.00,SSE,165,3.0,12.0,45,0.00,,,-99.99,,2013-06-02 17:32:00,
2013-06-02 13:42:00,91.0,67.0,-100.00,SSE,150,4.0,16.0,46,0.00,,,-99.99,,2013-06-02 17:42:00,
2013-06-02 13:52:00,91.0,67.0,-100.00,SSE,150,4.0,15.0,45,0.00,,,-99.99,,2013-06-02 17:52:00,
2013-06-02 14:02:00,90.0,67.0,-100.00,SE,130,6.0,16.0,47,0.00,,,-99.99,,2013-06-02 18:02:00,
2013-06-02 14:11:00,91.0,67.0,-100.00,East,80,3.0,12.0,45,0.00,,,-99.99,,2013-06-02 18:11:00,
2013-06-02 14:21:00,91.0,68.0,-100.00,North,-999,-999.0,-999.0,46,-99.99,,,-99.99,,2013-06-02 18:21:00,
2013-06-02 14:32:00,90.0,67.0,-100.00,SE,145,4.0,16.0,47,0.00,,,-99.99,,2013-06-02 18:32:00,
2013-06-02 14:42:00,92.0,68.0,-100.00,SSE,160,3.0,17.0,46,0.00,,,-99.99,,2013-06-02 18:42:00,
2013-06-02 14:52:00,91.0,67.0,-100.00,SE,130,4.0,17.0,45,0.00,,,-99.99,,2013-06-02 18:52:00,
2013-06-02 15:01:00,91.0,67.0,-100.00,SE,140,6.0,16.0,44,0.00,,,-99.99,,2013-06-02 19:01:00,
2013-06-02 15:11:00,92.0,66.0,-100.00,SE,145,6.0,21.0,43,0.00,,,-99.99,,2013-06-02 19:11:00,
2013-06-02 15:21:00,92.0,67.0,-100.00,East,90,3.0,21.0,44,0.00,,,-99.99,,2013-06-02 19:21:00,
2013-06-02 15:32:00,91.0,66.0,-100.00,ESE,120,7.0,17.0,43,0.00,,,-99.99,,2013-06-02 19:32:00,
2013-06-02 15:42:00,92.0,65.0,-100.00,SE,145,7.0,16.0,41,0.00,,,-99.99,,2013-06-02 19:42:00,
2013-06-02 15:52:00,91.0,65.0,-100.00,East,100,6.0,19.0,43,0.00,,,-99.99,,2013-06-02 19:52:00,
2013-06-02 16:02:00,91.0,65.0,-100.00,SE,140,5.0,19.0,42,0.00,,,-99.99,,2013-06-02 20:02:00,
2013-06-02 16:11:00,90.0,65.0,-100.00,East,90,4.0,14.0,43,0.00,,,-99.99,,2013-06-02 20:11:00,
2013-06-02 16:22:00,90.0,65.0,-100.00,SSE,160,4.0,22.0,43,0.00,,,-99.99,,2013-06-02 20:22:00,
2013-06-02 16:32:00,86.0,66.0,-100.00,West,280,6.0,20.0,51,0.00,,,-99.99,,2013-06-02 20:32:00,
2013-06-02 16:42:00,82.0,65.0,-100.00,West,270,4.0,20.0,57,0.00,,,-99.99,,2013-06-02 20:42:00,
2013-06-02 16:52:00,78.0,64.0,-100.00,East,85,4.0,14.0,62,0.00,,,-99.99,,2013-06-02 20:52:00,
2013-06-02 17:01:00,78.0,64.0,-100.00,North,0,6.0,16.0,63,0.00,,,-99.99,,2013-06-02 21:01:00,
2013-06-02 17:12:00,76.0,64.0,-100.00,SW,215,3.0,10.0,65,0.00,,,-99.99,,2013-06-02 21:12:00,
2013-06-02 17:21:00,75.0,64.0,-100.00,WSW,250,2.0,8.0,68,0.00,,,-99.99,,2013-06-02 21:21:00,
2013-06-02 17:33:00,74.0,65.0,-100.00,NW,315,6.0,14.0,73,0.00,,,-99.99,,2013-06-02 21:33:00,
2013-06-02 17:42:00,71.0,67.0,-100.00,West,265,4.0,19.0,87,1.91,,,-99.99,,2013-06-02 21:42:00,
2013-06-02 17:53:00,69.0,67.0,-100.00,North,5,1.0,6.0,93,1.32,,,-99.99,,2013-06-02 21:53:00,
2013-06-02 18:03:00,69.0,67.0,-100.00,ENE,65,1.0,3.0,94,1.40,,,-99.99,,2013-06-02 22:03:00,
2013-06-02 18:12:00,69.0,68.0,-100.00,North,350,1.0,3.0,96,0.00,,,-99.99,,2013-06-02 22:12:00,
2013-06-02 18:23:00,69.0,68.0,-100.00,SE,145,1.0,3.0,97,0.01,,,-99.99,,2013-06-02 22:23:00,
2013-06-02 18:33:00,70.0,69.0,-100.00,NNW,345,0.0,2.0,97,0.00,,,-99.99,,2013-06-02 22:33:00,
2013-06-02 18:42:00,70.0,69.0,-100.00,NNW,330,1.0,2.0,98,0.00,,,-99.99,,2013-06-02 22:42:00,
2013-06-02 18:52:00,70.0,69.0,-100.00,NNW,330,1.0,2.0,98,0.00,,,-99.99,,2013-06-02 22:52:00,
2013-06-02 19:02:00,70.0,69.0,-100.00,NNW,330,1.0,2.0,98,0.00,,,-99.99,,2013-06-02 23:02:00,
2013-06-02 19:12:00,70.0,69.0,-100.00,NNW,330,1.0,2.0,98,0.00,,,-99.99,,2013-06-02 23:12:00,
2013-06-02 19:22:00,70.0,69.0,-100.00,NNW,330,1.0,2.0,98,0.00,,,-99.99,,2013-06-02 23:22:00,
2013-06-02 19:43:00,69.0,69.0,-100.00,East,80,1.0,2.0,98,0.35,,,-99.99,,2013-06-02 23:43:00,
2013-06-02 19:53:00,69.0,69.0,-100.00,East,85,1.0,4.0,99,0.01,,,-99.99,,2013-06-02 23:53:00,
2013-06-02 20:01:00,69.0,69.0,-100.00,SE,135,1.0,3.0,99,0.01,,,-99.99,,2013-06-03 00:01:00,
2013-06-02 20:12:00,69.0,69.0,-100.00,East,95,1.0,3.0,99,0.00,,,-99.99,,2013-06-03 00:12:00,
2013-06-02 20:22:00,69.0,69.0,-100.00,ENE,75,1.0,3.0,99,0.00,,,-99.99,,2013-06-03 00:22:00,
2013-06-02 20:32:00,69.0,69.0,-100.00,ESE,115,1.0,4.0,99,0.00,,,-99.99,,2013-06-03 00:32:00,
2013-06-02 20:42:00,69.0,69.0,-100.00,East,85,1.0,3.0,99,0.00,,,-99.99,,2013-06-03 00:42:00,
2013-06-02 20:52:00,69.0,69.0,-100.00,ENE,75,1.0,4.0,99,0.00,,,-99.99,,2013-06-03 00:52:00,
2013-06-02 21:01:00,69.0,69.0,-100.00,NE,35,1.0,2.0,99,0.00,,,-99.99,,2013-06-03 01:01:00,
2013-06-02 21:11:00,68.0,68.0,-100.00,East,90,1.0,2.0,99,0.00,,,-99.99,,2013-06-03 01:11:00,
2013-06-02 21:21:00,69.0,69.0,-100.00,East,90,1.0,2.0,99,0.00,,,-99.99,,2013-06-03 01:21:00,
2013-06-02 21:32:00,68.0,68.0,-100.00,East,90,1.0,2.0,99,0.00,,,-99.99,,2013-06-03 01:32:00,
2013-06-02 21:42:00,68.0,68.0,-100.00,ESE,110,1.0,2.0,99,0.00,,,-99.99,,2013-06-03 01:42:00,
2013-06-02 21:52:00,68.0,68.0,-100.00,East,90,1.0,1.0,99,0.00,,,-99.99,,2013-06-03 01:52:00,
2013-06-02 22:02:00,68.0,68.0,-100.00,East,80,1.0,1.0,99,0.00,,,-99.99,,2013-06-03 02:02:00,
2013-06-02 22:12:00,68.0,68.0,-100.00,East,90,1.0,1.0,99,0.00,,,-99.99,,2013-06-03 02:12:00,
2013-06-02 22:22:00,68.0,68.0,-100.00,ENE,70,1.0,1.0,99,0.00,,,-99.99,,2013-06-03 02:22:00,
2013-06-02 22:32:00,68.0,68.0,-100.00,ENE,70,1.0,1.0,99,0.00,,,-99.99,,2013-06-03 02:32:00,
2013-06-02 22:42:00,68.0,68.0,-100.00,North,0,1.0,1.0,99,0.00,,,-99.99,,2013-06-03 02:42:00,
2013-06-02 22:52:00,68.0,68.0,-100.00,East,85,1.0,1.0,99,0.00,,,-99.99,,2013-06-03 02:52:00,
2013-06-02 23:02:00,68.0,68.0,-100.00,ENE,75,0.0,1.0,99,0.00,,,-99.99,,2013-06-03 03:02:00,
2013-06-02 23:12:00,68.0,68.0,-100.00,East,90,1.0,4.0,99,0.00,,,-99.99,,2013-06-03 03:12:00,
2013-06-02 23:22:00,68.0,68.0,-100.00,ENE,60,1.0,2.0,99,0.00,,,-99.99,,2013-06-03 03:22:00,
2013-06-02 23:33:00,68.0,68.0,-100.00,North,5,1.0,2.0,99,0.00,,,-99.99,,2013-06-03 03:33:00,
2013-06-02 23:53:00,68.0,67.0,-100.00,ENE,75,0.0,3.0,99,0.00,,,-99.99,,2013-06-03 03:53:00,